Time;durP1;ratioP1;P1;durP2;ratioP2;P2;SDS_P1;SDS_P2;PMS_P1;PMS_P2;Temp;Humidity;BMP_temperature;BMP_pressure;BME280_temperature;BME280_humidity;BME280_pressure;Samples;Min_cycle;Max_cycle;Signal;HPM_P1;HPM_P2
2021/11/26 00:00:24;;;;;;;23.65;17.57;;;21.80;89.10;;;;;;1827523;77;21176;-79
2021/11/26 00:02:55;;;;;;;28.73;18.12;;;21.80;89.00;;;;;;1809171;78;21571;-81
2021/11/26 00:05:27;;;;;;;24.70;17.23;;;21.80;88.70;;;;;;1837993;77;21147;-80
2021/11/26 00:07:58;;;;;;;25.65;17.77;;;21.90;88.70;;;;;;1833441;74;21193;-80
2021/11/26 00:10:28;;;;;;;24.77;17.80;;;21.90;88.30;;;;;;1846236;76;21704;-81
2021/11/26 00:13:02;;;;;;;24.30;17.05;;;21.90;88.10;;;;;;1846839;76;21135;-80
2021/11/26 00:18:09;;;;;;;23.95;15.80;;;22.00;87.10;;;;;;1840468;76;21479;-80
2021/11/26 00:20:36;;;;;;;18.98;14.45;;;22.10;86.20;;;;;;1845706;76;21139;-81
2021/11/26 00:23:07;;;;;;;20.88;13.70;;;22.20;85.60;;;;;;1823583;77;21582;-72
2021/11/26 00:25:38;;;;;;;19.80;13.25;;;22.20;85.10;;;;;;1844099;76;21225;-71
2021/11/26 00:28:10;;;;;;;18.10;12.85;;;22.30;84.60;;;;;;1819602;77;21654;-71
2021/11/26 00:30:40;;;;;;;19.90;13.13;;;22.40;84.50;;;;;;1848800;76;21084;-72
2021/11/26 00:33:11;;;;;;;20.27;13.20;;;22.40;84.20;;;;;;1841815;76;21155;-71
2021/11/26 00:35:42;;;;;;;18.00;12.28;;;22.50;83.80;;;;;;1859131;76;21127;-71
2021/11/26 00:38:13;;;;;;;14.78;11.40;;;22.60;83.50;;;;;;1864554;76;21587;-71
2021/11/26 00:40:44;;;;;;;19.12;10.95;;;22.70;83.00;;;;;;1844208;77;21163;-71
2021/11/26 00:43:15;;;;;;;15.28;11.50;;;22.70;82.40;;;;;;1852381;76;21634;-71
2021/11/26 00:45:46;;;;;;;17.92;10.88;;;22.80;82.40;;;;;;1843860;76;21692;-71
2021/11/26 00:48:16;;;;;;;15.43;10.15;;;22.80;82.40;;;;;;1852643;76;21174;-71
2021/11/26 00:50:47;;;;;;;21.05;11.73;;;22.90;81.80;;;;;;1869351;76;21147;-71
2021/11/26 00:53:18;;;;;;;14.80;10.50;;;23.00;81.50;;;;;;1855514;76;21987;-71
2021/11/26 00:55:49;;;;;;;16.17;11.15;;;23.00;81.00;;;;;;1863733;76;21138;-71
2021/11/26 00:58:20;;;;;;;14.93;10.28;;;23.10;80.60;;;;;;1878127;76;21159;-71
2021/11/26 01:00:51;;;;;;;15.50;10.82;;;23.20;80.40;;;;;;1856066;76;21183;-71
2021/11/26 01:03:22;;;;;;;17.98;11.57;;;23.20;80.60;;;;;;1829709;76;21139;-71
2021/11/26 01:05:53;;;;;;;14.83;10.88;;;23.30;80.00;;;;;;1837622;76;21151;-71
2021/11/26 01:08:24;;;;;;;17.98;11.28;;;23.30;79.50;;;;;;1844029;76;21136;-71
2021/11/26 01:10:55;;;;;;;17.45;9.90;;;23.30;79.50;;;;;;1846918;76;21104;-71
2021/11/26 01:13:26;;;;;;;12.58;9.43;;;23.40;79.30;;;;;;1838475;76;21628;-70
2021/11/26 01:15:57;;;;;;;12.75;10.00;;;23.40;79.30;;;;;;1848276;76;21276;-73
2021/11/26 01:18:28;;;;;;;13.88;9.98;;;23.40;78.50;;;;;;1837701;76;21238;-71
2021/11/26 01:20:59;;;;;;;14.65;9.88;;;23.50;78.80;;;;;;1843536;76;21185;-72
2021/11/26 01:23:30;;;;;;;16.27;10.28;;;23.50;78.80;;;;;;1840896;76;21090;-70
2021/11/26 01:26:01;;;;;;;16.87;10.80;;;23.60;78.50;;;;;;1836684;76;21127;-73
2021/11/26 01:28:31;;;;;;;14.83;10.45;;;23.60;78.60;;;;;;1837978;76;21163;-74
2021/11/26 01:31:03;;;;;;;14.20;8.90;;;23.60;78.60;;;;;;1850441;76;21237;-73
2021/11/26 01:33:37;;;;;;;12.43;9.45;;;23.70;78.00;;;;;;1858561;76;21209;-72
2021/11/26 01:36:06;;;;;;;15.70;10.65;;;23.70;77.80;;;;;;1847841;76;21084;-71
2021/11/26 01:38:38;;;;;;;16.20;11.20;;;23.70;77.80;;;;;;1847984;76;21972;-72
2021/11/26 01:41:09;;;;;;;16.37;10.90;;;23.70;77.80;;;;;;1850847;76;21191;-71
2021/11/26 01:43:40;;;;;;;14.60;10.28;;;23.70;77.50;;;;;;1848327;76;21135;-71
2021/11/26 01:46:11;;;;;;;12.85;9.55;;;23.70;77.60;;;;;;1839451;76;21499;-72
2021/11/26 01:48:43;;;;;;;13.30;9.05;;;23.70;77.70;;;;;;1845803;76;21587;-71
2021/11/26 01:51:14;;;;;;;16.10;10.53;;;23.80;77.30;;;;;;1837466;76;21071;-72
2021/11/26 01:53:45;;;;;;;11.63;8.70;;;23.80;77.40;;;;;;1833199;76;21167;-72
2021/11/26 01:56:16;;;;;;;13.70;8.53;;;23.90;77.30;;;;;;1850478;76;21639;-71
2021/11/26 01:58:47;;;;;;;16.25;10.10;;;23.90;77.30;;;;;;1843621;76;21225;-71
2021/11/26 02:01:19;;;;;;;14.30;10.53;;;24.00;77.30;;;;;;1809815;78;21134;-71
2021/11/26 02:03:50;;;;;;;14.55;9.60;;;24.10;77.40;;;;;;1848967;76;21149;-71
2021/11/26 02:06:21;;;;;;;11.75;9.30;;;24.10;77.00;;;;;;1861528;76;21091;-70
2021/11/26 02:08:52;;;;;;;12.28;8.75;;;24.10;76.80;;;;;;1860730;76;21172;-71
2021/11/26 02:11:23;;;;;;;11.88;9.30;;;24.20;75.90;;;;;;1816223;76;21650;-71
2021/11/26 02:13:54;;;;;;;13.78;9.18;;;24.20;76.00;;;;;;1866642;76;21139;-71
2021/11/26 02:16:24;;;;;;;10.60;8.30;;;24.20;76.10;;;;;;1865313;76;21147;-70
2021/11/26 02:18:55;;;;;;;10.72;8.35;;;24.30;76.10;;;;;;1844519;76;21186;-71
2021/11/26 02:21:26;;;;;;;12.55;8.65;;;24.30;76.20;;;;;;1852915;76;21102;-71
2021/11/26 02:23:57;;;;;;;12.05;8.95;;;24.40;76.00;;;;;;1865293;76;21473;-69
2021/11/26 02:26:28;;;;;;;14.40;9.58;;;24.40;75.90;;;;;;1815722;77;21196;-70
2021/11/26 02:29:18;;;;;;;21.23;9.28;;;24.40;75.80;;;;;;1809809;78;21655;-70
2021/11/26 02:31:50;;;;;;;12.95;8.80;;;24.50;75.10;;;;;;1785466;79;21916;-70
2021/11/26 02:34:21;;;;;;;12.65;8.25;;;24.50;74.60;;;;;;1793027;78;21172;-71
2021/11/26 02:36:51;;;;;;;12.80;9.10;;;24.60;74.90;;;;;;1746085;81;21160;-71
2021/11/26 02:39:22;;;;;;;12.88;9.40;;;24.60;74.60;;;;;;1786294;79;21145;-72
2021/11/26 02:41:53;;;;;;;24.47;11.53;;;24.70;74.80;;;;;;1783779;79;21180;-71
2021/11/26 02:44:24;;;;;;;17.37;7.90;;;24.80;74.30;;;;;;1782833;79;21093;-71
2021/11/26 02:46:54;;;;;;;11.73;7.97;;;24.80;74.20;;;;;;1750126;81;21187;-70
2021/11/26 02:49:25;;;;;;;16.40;10.30;;;24.90;73.60;;;;;;1712192;83;21123;-70
2021/11/26 02:51:56;;;;;;;10.90;7.83;;;25.00;74.50;;;;;;1777346;79;21113;-71
2021/11/26 02:54:27;;;;;;;14.73;8.38;;;25.10;73.10;;;;;;1739068;81;21696;-70
2021/11/26 02:56:58;;;;;;;11.97;7.25;;;25.20;73.10;;;;;;1730502;81;21789;-70
2021/11/26 02:59:29;;;;;;;11.20;7.40;;;25.20;72.70;;;;;;1745719;81;21225;-70
2021/11/26 03:02:01;;;;;;;11.78;7.00;;;25.30;72.60;;;;;;1772429;79;21170;-70
2021/11/26 03:04:31;;;;;;;15.38;7.20;;;25.40;72.30;;;;;;1783370;79;21157;-73
2021/11/26 03:07:05;;;;;;;8.75;7.12;;;25.50;72.20;;;;;;1778787;79;21194;-72
2021/11/26 03:09:36;;;;;;;10.23;7.17;;;25.60;72.00;;;;;;1777575;79;21202;-73
2021/11/26 03:12:08;;;;;;;14.40;8.13;;;25.70;71.50;;;;;;1748433;81;21694;-72
2021/11/26 03:14:39;;;;;;;14.90;7.15;;;25.80;71.10;;;;;;1780605;79;21180;-73
2021/11/26 03:17:10;;;;;;;13.53;7.78;;;25.80;71.10;;;;;;1746318;81;21654;-72
2021/11/26 03:19:42;;;;;;;12.50;8.20;;;25.90;71.10;;;;;;1785003;79;21211;-70
2021/11/26 03:22:13;;;;;;;25.17;10.03;;;26.00;70.90;;;;;;1784590;79;21152;-70
2021/11/26 03:24:44;;;;;;;8.93;6.80;;;26.10;70.60;;;;;;1785284;79;21204;-71
2021/11/26 03:27:15;;;;;;;11.88;6.03;;;26.20;70.50;;;;;;1743251;81;21282;-72
2021/11/26 03:29:45;;;;;;;11.08;6.62;;;26.30;69.90;;;;;;1782280;79;21743;-71
2021/11/26 03:32:16;;;;;;;7.95;5.95;;;26.40;69.60;;;;;;1805971;78;21232;-72
2021/11/26 03:34:47;;;;;;;20.27;9.98;;;26.50;69.40;;;;;;1791733;79;21081;-72
2021/11/26 03:37:18;;;;;;;42.13;14.10;;;26.70;69.50;;;;;;1770613;80;21205;-73
2021/11/26 03:39:49;;;;;;;25.80;9.38;;;26.80;68.60;;;;;;1798141;78;21626;-74
2021/11/26 03:42:19;;;;;;;8.53;5.70;;;26.90;68.30;;;;;;1805413;78;21227;-72
2021/11/26 03:44:50;;;;;;;9.08;6.22;;;27.00;67.60;;;;;;1799045;79;21243;-72
2021/11/26 03:47:22;;;;;;;12.80;6.00;;;27.00;67.60;;;;;;1772906;79;21194;-73
2021/11/26 03:49:54;;;;;;;34.50;13.22;;;27.10;67.50;;;;;;1773774;79;22194;-73
2021/11/26 03:52:44;;;;;;;26.17;10.85;;;27.20;67.40;;;;;;1806334;78;21102;-72
2021/11/26 03:55:17;;;;;;;55.45;17.27;;;27.40;66.80;;;;;;1837339;77;21592;-72
2021/11/26 03:57:48;;;;;;;8.18;5.97;;;27.50;66.60;;;;;;1796812;79;21184;-71
2021/11/26 04:00:19;;;;;;;30.12;12.90;;;27.60;66.10;;;;;;1820488;77;21166;-70
2021/11/26 04:02:51;;;;;;;18.00;10.13;;;27.70;65.70;;;;;;1816293;77;21162;-71
2021/11/26 04:05:40;;;;;;;20.10;10.38;;;27.80;65.40;;;;;;1814683;77;21645;-72
2021/11/26 04:08:11;;;;;;;29.12;12.95;;;28.00;70.30;;;;;;1867792;76;21458;-72
2021/11/26 04:10:42;;;;;;;20.05;8.80;;;28.00;72.50;;;;;;1845062;76;21548;-74
2021/11/26 04:13:13;;;;;;;16.27;8.48;;;28.20;79.70;;;;;;1854598;76;21117;-72
2021/11/26 04:15:44;;;;;;;29.50;13.53;;;28.20;78.60;;;;;;1845774;76;21260;-72
2021/11/26 04:18:15;;;;;;;14.30;7.72;;;28.10;64.60;;;;;;1844930;76;21265;-71
2021/11/26 04:20:46;;;;;;;8.08;4.85;;;28.10;64.70;;;;;;1859545;76;21175;-71
2021/11/26 04:23:17;;;;;;;7.42;5.05;;;28.20;63.70;;;;;;1865766;76;21120;-72
2021/11/26 04:25:47;;;;;;;8.65;5.83;;;28.30;63.50;;;;;;1878483;75;21139;-71
2021/11/26 04:28:18;;;;;;;7.70;4.85;;;28.40;63.30;;;;;;1864797;76;21174;-72
2021/11/26 04:30:49;;;;;;;7.62;5.00;;;28.40;62.70;;;;;;1864356;75;21910;-72
2021/11/26 04:33:20;;;;;;;7.03;5.00;;;28.40;62.70;;;;;;1872444;76;21215;-72
2021/11/26 04:35:52;;;;;;;6.87;4.92;;;28.40;62.80;;;;;;1843220;76;21190;-70
2021/11/26 04:38:22;;;;;;;7.05;4.55;;;28.50;62.70;;;;;;1837278;76;21197;-70
2021/11/26 04:40:53;;;;;;;9.88;5.53;;;28.60;62.10;;;;;;1840310;76;21110;-71
2021/11/26 04:43:25;;;;;;;10.80;5.42;;;28.70;62.40;;;;;;1852290;76;21216;-72
2021/11/26 04:45:56;;;;;;;6.17;4.70;;;28.80;62.00;;;;;;1856913;76;21172;-72
2021/11/26 04:48:27;;;;;;;9.88;5.17;;;28.90;61.20;;;;;;1865970;76;21090;-73
2021/11/26 04:50:58;;;;;;;7.42;5.20;;;28.90;61.20;;;;;;1830114;77;21216;-72
2021/11/26 04:53:28;;;;;;;7.05;5.22;;;29.00;60.80;;;;;;1824336;77;21702;-73
2021/11/26 04:55:59;;;;;;;7.08;4.50;;;29.00;60.80;;;;;;1828951;76;21509;-73
2021/11/26 04:58:34;;;;;;;10.20;5.22;;;29.00;61.00;;;;;;1841884;76;21218;-72
2021/11/26 05:01:02;;;;;;;9.35;5.50;;;29.10;61.30;;;;;;1864519;76;21695;-72
2021/11/26 05:03:34;;;;;;;5.97;4.65;;;29.20;60.70;;;;;;1859801;76;21187;-72
2021/11/26 05:06:04;;;;;;;8.28;4.83;;;29.20;60.40;;;;;;1862772;76;21108;-73
2021/11/26 05:08:35;;;;;;;6.03;5.12;;;29.30;59.90;;;;;;1832420;77;21247;-73
2021/11/26 05:11:06;;;;;;;8.00;5.08;;;29.40;60.10;;;;;;1838528;77;21245;-73
2021/11/26 05:13:43;;;;;;;8.00;5.67;;;29.30;60.00;;;;;;1833834;77;21213;-71
2021/11/26 05:16:09;;;;;;;7.22;5.22;;;29.40;60.50;;;;;;1835202;77;21137;-72
2021/11/26 05:18:41;;;;;;;8.58;5.28;;;29.40;60.80;;;;;;1830614;77;21806;-73
2021/11/26 05:21:13;;;;;;;8.95;5.22;;;29.50;61.10;;;;;;1830361;77;21125;-73
2021/11/26 05:23:43;;;;;;;9.95;4.78;;;29.50;60.10;;;;;;1835393;77;21261;-72
2021/11/26 05:26:15;;;;;;;8.73;5.30;;;29.50;59.40;;;;;;1830822;77;21145;-72
2021/11/26 05:28:46;;;;;;;8.50;4.83;;;29.60;59.30;;;;;;1833151;77;21136;-72
2021/11/26 05:31:17;;;;;;;9.60;5.12;;;29.60;59.70;;;;;;1840113;77;21158;-72
2021/11/26 05:33:48;;;;;;;7.25;4.72;;;29.60;59.60;;;;;;1835631;77;21188;-71
2021/11/26 05:36:20;;;;;;;10.20;4.28;;;29.60;59.30;;;;;;1854010;75;21244;-71
2021/11/26 05:38:50;;;;;;;8.50;4.83;;;29.60;59.90;;;;;;1877960;75;21684;-72
2021/11/26 05:41:21;;;;;;;9.30;5.37;;;29.60;59.20;;;;;;1853778;75;21087;-72
2021/11/26 05:43:52;;;;;;;9.18;5.30;;;29.60;59.20;;;;;;1850908;77;21217;-71
2021/11/26 05:46:23;;;;;;;8.13;4.65;;;29.60;60.30;;;;;;1863801;75;21084;-71
2021/11/26 05:48:53;;;;;;;9.63;4.92;;;29.70;59.30;;;;;;1864021;75;21119;-73
2021/11/26 05:51:25;;;;;;;5.55;4.33;;;29.80;58.40;;;;;;1862381;75;21403;-73
2021/11/26 05:53:55;;;;;;;13.43;5.17;;;29.80;58.40;;;;;;1860051;75;21752;-71
2021/11/26 05:56:26;;;;;;;7.53;4.92;;;29.80;58.90;;;;;;1855325;75;21635;-71
2021/11/26 05:58:57;;;;;;;6.17;4.53;;;29.80;58.50;;;;;;1859785;75;21177;-71
2021/11/26 06:01:28;;;;;;;6.58;4.60;;;29.80;58.60;;;;;;1864828;75;21159;-70
2021/11/26 06:03:58;;;;;;;5.55;4.60;;;29.80;58.90;;;;;;1863361;75;21119;-70
2021/11/26 06:06:29;;;;;;;10.53;5.33;;;29.80;58.80;;;;;;1860220;75;21127;-70
2021/11/26 06:09:00;;;;;;;7.08;4.80;;;29.80;58.30;;;;;;1890838;75;21190;-70
2021/11/26 06:11:31;;;;;;;6.22;4.83;;;29.80;58.30;;;;;;1899369;74;21199;-70
2021/11/26 06:14:02;;;;;;;7.17;4.30;;;29.80;58.30;;;;;;1881569;75;21162;-72
2021/11/26 06:16:32;;;;;;;7.97;4.78;;;29.80;58.30;;;;;;1884270;74;21509;-72
2021/11/26 06:19:03;;;;;;;4.90;4.00;;;29.80;58.30;;;;;;1885388;74;21607;-69
2021/11/26 06:21:34;;;;;;;7.97;4.03;;;29.80;57.90;;;;;;1894968;74;21170;-70
2021/11/26 06:24:05;;;;;;;6.47;4.33;;;29.80;58.10;;;;;;1886040;74;21143;-70
2021/11/26 06:26:47;;;;;;;6.47;4.40;;;29.80;58.20;;;;;;1890033;74;21064;-70
2021/11/26 06:29:18;;;;;;;7.92;4.37;;;29.80;58.40;;;;;;1895838;74;21135;-70
2021/11/26 06:31:49;;;;;;;7.08;4.05;;;29.80;58.40;;;;;;1892472;74;21068;-70
2021/11/26 06:34:20;;;;;;;7.60;4.35;;;29.80;58.30;;;;;;1892779;75;21193;-70
2021/11/26 06:36:51;;;;;;;7.65;4.72;;;29.80;58.30;;;;;;1895237;75;21650;-70
2021/11/26 06:39:22;;;;;;;9.58;3.85;;;29.90;58.10;;;;;;1886087;74;21175;-71
2021/11/26 06:41:53;;;;;;;5.95;3.87;;;29.90;58.00;;;;;;1894634;74;21201;-71
2021/11/26 06:44:24;;;;;;;13.38;4.17;;;29.90;57.80;;;;;;1861116;76;21567;-72
2021/11/26 06:46:55;;;;;;;8.15;4.08;;;29.90;57.90;;;;;;1867774;75;21148;-71
2021/11/26 06:49:25;;;;;;;5.67;3.45;;;29.90;58.00;;;;;;1879832;75;21393;-71
2021/11/26 06:51:56;;;;;;;6.65;3.52;;;29.90;57.60;;;;;;1889540;75;21232;-71
2021/11/26 06:54:26;;;;;;;3.72;3.10;;;30.00;57.70;;;;;;1866985;75;21070;-70
2021/11/26 06:56:57;;;;;;;5.28;3.52;;;30.00;57.50;;;;;;1901709;74;21072;-70
2021/11/26 06:59:28;;;;;;;5.35;3.85;;;30.00;57.50;;;;;;1862789;76;21149;-70
2021/11/26 07:01:59;;;;;;;6.50;3.70;;;30.00;57.20;;;;;;1866663;75;21177;-68
2021/11/26 07:04:30;;;;;;;5.12;3.87;;;30.00;57.40;;;;;;1874703;75;21737;-71
2021/11/26 07:07:02;;;;;;;7.05;3.85;;;30.00;57.70;;;;;;1882745;75;21083;-70
2021/11/26 07:09:32;;;;;;;6.83;4.55;;;30.00;57.50;;;;;;1886007;75;21068;-70
2021/11/26 07:12:09;;;;;;;6.45;4.10;;;30.00;57.30;;;;;;1884163;74;21051;-71
2021/11/26 07:14:43;;;;;;;9.00;4.17;;;30.00;57.50;;;;;;1879376;74;21212;-71
2021/11/26 07:17:16;;;;;;;7.67;4.50;;;30.00;57.60;;;;;;1888274;74;21158;-71
2021/11/26 07:19:49;;;;;;;9.63;4.83;;;29.90;57.40;;;;;;1884891;75;21100;-71
2021/11/26 07:22:21;;;;;;;9.10;5.90;;;30.00;57.40;;;;;;1901920;74;21196;-72
2021/11/26 07:24:53;;;;;;;5.12;4.10;;;29.90;58.10;;;;;;1863390;75;21134;-71
2021/11/26 07:27:24;;;;;;;7.70;4.60;;;29.80;57.90;;;;;;1866236;75;21249;-70
2021/11/26 07:29:55;;;;;;;5.87;3.90;;;29.80;58.10;;;;;;1867611;75;21642;-70
2021/11/26 07:32:26;;;;;;;6.80;4.10;;;29.80;58.10;;;;;;1869238;75;21627;-71
2021/11/26 07:34:57;;;;;;;7.70;4.47;;;29.70;58.10;;;;;;1896932;74;21037;-71
2021/11/26 07:37:28;;;;;;;6.12;3.98;;;29.70;57.90;;;;;;1879808;75;21579;-71
2021/11/26 07:39:59;;;;;;;7.83;3.90;;;29.70;58.10;;;;;;1887854;75;21104;-71
2021/11/26 07:42:30;;;;;;;9.28;5.17;;;29.70;57.90;;;;;;1864584;76;21140;-72
2021/11/26 07:45:00;;;;;;;7.25;4.30;;;29.80;57.90;;;;;;1893690;75;21071;-70
2021/11/26 07:47:31;;;;;;;8.63;3.87;;;29.70;57.80;;;;;;1859448;75;21606;-71
2021/11/26 07:50:03;;;;;;;7.08;4.40;;;29.70;58.20;;;;;;1891972;74;21142;-70
2021/11/26 07:52:33;;;;;;;8.83;4.65;;;29.70;58.10;;;;;;1861989;75;21199;-71
2021/11/26 07:55:05;;;;;;;7.75;4.12;;;29.70;57.80;;;;;;1877549;75;21209;-71
2021/11/26 07:57:37;;;;;;;7.85;4.05;;;29.70;59.00;;;;;;1867251;75;21112;-71
2021/11/26 08:00:10;;;;;;;7.50;3.92;;;29.70;58.30;;;;;;1909271;74;21212;-71
2021/11/26 08:02:41;;;;;;;4.72;3.47;;;29.70;58.00;;;;;;1901418;74;21156;-71
2021/11/26 08:05:11;;;;;;;8.95;4.30;;;29.70;57.70;;;;;;1884480;75;21181;-70
2021/11/26 08:07:43;;;;;;;5.10;3.70;;;29.60;57.80;;;;;;1867203;75;21555;-72
2021/11/26 08:10:14;;;;;;;5.65;3.95;;;29.60;57.70;;;;;;1884030;74;21475;-72
2021/11/26 08:12:44;;;;;;;6.55;4.50;;;29.60;57.60;;;;;;1869367;75;21407;-72
2021/11/26 08:15:17;;;;;;;6.22;4.03;;;29.60;58.00;;;;;;1858379;76;21622;-72
2021/11/26 08:17:50;;;;;;;9.35;4.67;;;29.60;58.10;;;;;;1877022;75;21658;-71
2021/11/26 08:20:20;;;;;;;9.53;4.40;;;29.60;57.70;;;;;;1880826;75;21161;-72
2021/11/26 08:22:52;;;;;;;6.80;3.72;;;29.60;58.00;;;;;;1875367;75;21146;-71
2021/11/26 08:25:25;;;;;;;10.15;4.50;;;29.60;58.20;;;;;;1893831;75;21189;-72
2021/11/26 08:27:56;;;;;;;10.05;4.75;;;29.60;58.70;;;;;;1882564;75;21205;-73
2021/11/26 08:30:36;;;;;;;7.87;4.20;;;29.60;58.30;;;;;;1882377;75;21499;-73
2021/11/26 08:33:09;;;;;;;11.50;3.80;;;29.60;57.80;;;;;;1869606;76;21126;-73
2021/11/26 08:35:39;;;;;;;8.55;4.47;;;29.50;57.70;;;;;;1881437;75;21161;-73
2021/11/26 08:38:10;;;;;;;10.65;4.37;;;29.50;58.00;;;;;;1883591;75;21220;-73
2021/11/26 08:40:41;;;;;;;7.15;4.53;;;29.50;57.90;;;;;;1889077;75;21186;-72
2021/11/26 08:43:11;;;;;;;7.50;4.67;;;29.50;57.90;;;;;;1887016;76;21228;-72
2021/11/26 08:45:42;;;;;;;7.25;4.40;;;29.50;58.00;;;;;;1878989;75;21115;-72
2021/11/26 08:48:13;;;;;;;5.72;4.08;;;29.40;58.30;;;;;;1878303;75;21661;-72
2021/11/26 08:50:44;;;;;;;6.45;4.17;;;29.40;58.10;;;;;;1880610;75;21693;-72
2021/11/26 08:53:15;;;;;;;5.72;4.25;;;29.30;58.30;;;;;;1891821;75;21067;-73
2021/11/26 08:55:50;;;;;;;8.68;4.80;;;29.30;58.60;;;;;;1885409;75;21256;-72
2021/11/26 08:58:18;;;;;;;7.95;5.12;;;29.20;58.90;;;;;;1878849;75;21147;-72
2021/11/26 09:00:50;;;;;;;10.82;4.92;;;29.20;59.10;;;;;;1872038;75;21090;-71
2021/11/26 09:03:21;;;;;;;11.57;5.47;;;29.10;59.40;;;;;;1879790;75;21131;-71
2021/11/26 09:05:52;;;;;;;6.53;4.75;;;29.10;59.50;;;;;;1878892;75;21237;-70
2021/11/26 09:08:23;;;;;;;7.67;4.78;;;29.00;59.60;;;;;;1887028;75;21606;-73
2021/11/26 09:10:56;;;;;;;16.80;4.72;;;29.00;59.70;;;;;;1878598;75;21104;-72
2021/11/26 09:13:28;;;;;;;9.18;4.75;;;28.90;59.60;;;;;;1886706;74;21638;-71
2021/11/26 09:15:59;;;;;;;7.42;4.78;;;28.90;59.70;;;;;;1893156;74;21574;-74
2021/11/26 09:18:30;;;;;;;5.80;3.90;;;28.90;59.80;;;;;;1891093;74;21595;-72
2021/11/26 09:21:01;;;;;;;7.35;4.55;;;28.80;59.90;;;;;;1870551;75;21700;-72
2021/11/26 09:23:43;;;;;;;8.25;4.60;;;28.80;59.60;;;;;;1859649;76;21209;-71
2021/11/26 09:26:14;;;;;;;7.00;4.33;;;28.80;59.70;;;;;;1882016;75;21194;-71
2021/11/26 09:28:46;;;;;;;6.62;4.75;;;28.70;59.90;;;;;;1880775;75;21599;-71
2021/11/26 09:31:17;;;;;;;15.58;5.00;;;28.70;60.00;;;;;;1883771;75;21094;-71
2021/11/26 09:33:50;;;;;;;8.63;5.20;;;28.70;60.40;;;;;;1891270;74;21064;-71
2021/11/26 09:36:23;;;;;;;6.90;4.97;;;28.60;60.20;;;;;;1903425;75;21658;-72
2021/11/26 09:38:53;;;;;;;9.00;5.83;;;28.60;60.40;;;;;;1896768;75;21547;-72
2021/11/26 09:41:25;;;;;;;12.10;5.90;;;28.60;60.70;;;;;;1880536;74;21193;-73
2021/11/26 09:44:00;;;;;;;9.78;6.47;;;28.50;60.80;;;;;;1885450;74;21138;-70
2021/11/26 09:46:32;;;;;;;14.05;7.30;;;28.50;61.30;;;;;;1876330;74;21192;-70
2021/11/26 09:49:03;;;;;;;11.53;6.47;;;28.50;61.90;;;;;;1881784;75;21134;-71
2021/11/26 09:51:35;;;;;;;13.93;6.75;;;28.40;62.20;;;;;;1894669;74;21135;-70
2021/11/26 09:54:06;;;;;;;15.45;6.87;;;28.40;62.30;;;;;;1887073;75;21615;-70
2021/11/26 09:56:37;;;;;;;13.43;6.87;;;28.40;62.20;;;;;;1881427;75;21119;-72
2021/11/26 09:59:08;;;;;;;17.35;7.37;;;28.40;62.10;;;;;;1883762;74;21879;-76
2021/11/26 10:01:38;;;;;;;12.03;6.50;;;28.30;62.40;;;;;;1887044;74;21579;-70
2021/11/26 10:04:12;;;;;;;12.53;6.92;;;28.30;62.50;;;;;;1883761;74;21167;-69
2021/11/26 10:06:46;;;;;;;14.55;7.45;;;28.20;62.50;;;;;;1879659;74;21189;-69
2021/11/26 10:09:17;;;;;;;9.20;6.55;;;28.30;62.90;;;;;;1886920;75;21635;-81
2021/11/26 10:11:49;;;;;;;11.95;6.85;;;28.20;63.00;;;;;;1847118;76;21202;-81
2021/11/26 10:14:21;;;;;;;11.38;6.50;;;28.10;63.20;;;;;;1847965;76;21088;-82
2021/11/26 10:16:56;;;;;;;14.23;6.67;;;28.10;63.40;;;;;;1877578;76;21165;-83
2021/11/26 10:19:29;;;;;;;10.72;6.60;;;28.00;63.90;;;;;;1882309;75;21540;-83
2021/11/26 10:22:01;;;;;;;12.23;6.87;;;28.00;63.60;;;;;;1843451;77;21111;-82
2021/11/26 10:24:31;;;;;;;12.47;6.92;;;28.00;63.90;;;;;;1875320;75;21165;-82
2021/11/26 10:27:02;;;;;;;10.43;6.97;;;27.90;64.20;;;;;;1875548;75;21204;-81
2021/11/26 10:29:36;;;;;;;10.93;7.08;;;27.90;64.40;;;;;;1864957;75;21949;-82
2021/11/26 10:32:09;;;;;;;12.55;7.20;;;27.80;64.50;;;;;;1894565;75;21594;-82
2021/11/26 10:34:42;;;;;;;14.98;9.05;;;27.80;64.60;;;;;;1890787;75;21143;-82
2021/11/26 10:37:15;;;;;;;12.43;7.50;;;27.70;64.80;;;;;;1881017;75;21240;-82
2021/11/26 10:39:46;;;;;;;15.85;8.63;;;27.70;65.00;;;;;;1881442;75;21099;-82
2021/11/26 10:42:19;;;;;;;12.18;7.80;;;27.60;65.30;;;;;;1841771;76;21420;-82
2021/11/26 10:45:03;;;;;;;12.05;8.15;;;27.60;65.40;;;;;;1878898;75;21676;-83
2021/11/26 10:47:40;;;;;;;16.67;8.28;;;27.50;65.80;;;;;;1851636;76;21100;-82
2021/11/26 10:57:54;;;;;;;16.77;10.90;;;27.30;66.70;;;;;;1852741;76;21625;-82
2021/11/26 11:00:16;;;;;;;19.05;11.03;;;27.30;67.00;;;;;;1864095;76;21182;-82
2021/11/26 11:02:49;;;;;;;18.62;10.70;;;27.30;67.30;;;;;;1886883;75;21557;-82
2021/11/26 11:05:23;;;;;;;17.75;10.88;;;27.30;67.30;;;;;;1875649;75;21084;-83
2021/11/26 11:07:54;;;;;;;21.95;10.58;;;27.20;67.40;;;;;;1869202;75;21168;-82
2021/11/26 11:10:26;;;;;;;20.02;9.83;;;27.20;67.80;;;;;;1857563;76;21106;-82
2021/11/26 11:13:00;;;;;;;17.85;11.33;;;27.10;67.60;;;;;;1844910;76;21153;-82
2021/11/26 11:15:33;;;;;;;17.87;11.30;;;27.10;67.90;;;;;;1880355;75;21196;-83
2021/11/26 11:18:05;;;;;;;19.42;10.80;;;27.00;67.80;;;;;;1879636;76;21110;-83
2021/11/26 11:20:39;;;;;;;16.37;11.00;;;27.00;68.30;;;;;;1852228;76;21145;-82
2021/11/26 11:23:11;;;;;;;16.87;11.63;;;26.90;68.40;;;;;;1883378;75;21214;-82
2021/11/26 11:25:41;;;;;;;18.40;12.82;;;26.90;68.20;;;;;;1866299;75;21105;-83
2021/11/26 11:28:14;;;;;;;19.45;13.60;;;26.90;68.80;;;;;;1859325;76;21129;-83
2021/11/26 11:30:45;;;;;;;21.70;14.35;;;26.90;69.30;;;;;;1858318;76;21087;-83
2021/11/26 11:33:17;;;;;;;29.63;15.25;;;26.80;69.10;;;;;;1887505;75;21147;-83
2021/11/26 11:35:55;;;;;;;25.88;14.95;;;26.70;69.40;;;;;;1885725;75;21048;-82
2021/11/26 11:38:26;;;;;;;25.65;15.85;;;26.70;69.70;;;;;;1885375;75;21159;-82
2021/11/26 11:41:03;;;;;;;30.20;16.00;;;26.60;69.90;;;;;;1879786;75;21099;-83
2021/11/26 11:43:36;;;;;;;22.80;15.95;;;26.60;70.30;;;;;;1885631;75;21694;-82
2021/11/26 11:46:11;;;;;;;22.42;15.15;;;26.60;70.10;;;;;;1884713;75;21210;-82
2021/11/26 11:48:44;;;;;;;24.10;16.70;;;26.50;70.50;;;;;;1885960;75;21107;-83
2021/11/26 11:51:18;;;;;;;24.52;16.62;;;26.40;70.60;;;;;;1881549;75;21224;-83
2021/11/26 11:53:51;;;;;;;22.93;15.28;;;26.40;70.60;;;;;;1889710;75;21627;-82
2021/11/26 11:56:21;;;;;;;23.83;16.37;;;26.30;70.70;;;;;;1881762;75;21157;-83
2021/11/26 11:58:55;;;;;;;30.62;18.32;;;26.30;70.90;;;;;;1882173;75;21160;-83
2021/11/26 12:01:29;;;;;;;24.18;16.48;;;26.20;71.30;;;;;;1867782;75;21130;-83
2021/11/26 12:04:02;;;;;;;24.57;16.50;;;26.20;71.50;;;;;;1847611;76;21142;-82
2021/11/26 12:06:39;;;;;;;19.73;15.23;;;26.20;71.60;;;;;;1878172;75;21092;-82
2021/11/26 12:09:12;;;;;;;21.65;14.85;;;26.10;71.50;;;;;;1880310;75;21147;-83
2021/11/26 12:11:44;;;;;;;23.92;15.48;;;26.10;71.40;;;;;;1856648;75;21557;-82
2021/11/26 12:14:19;;;;;;;23.75;14.60;;;26.00;71.30;;;;;;1862753;75;21153;-83
2021/11/26 12:19:27;;;;;;;24.00;14.95;;;25.90;71.40;;;;;;1889751;73;21162;-83
2021/11/26 12:21:58;;;;;;;25.80;15.28;;;25.90;71.60;;;;;;1884791;75;21136;-84
2021/11/26 12:24:31;;;;;;;23.87;14.85;;;25.80;71.50;;;;;;1887223;75;21082;-83
2021/11/26 12:27:02;;;;;;;19.95;14.70;;;25.80;71.80;;;;;;1862041;76;21115;-84
2021/11/26 12:29:35;;;;;;;18.80;13.95;;;25.70;72.00;;;;;;1871176;75;21688;-84
2021/11/26 12:32:08;;;;;;;19.00;14.68;;;25.70;72.10;;;;;;1870103;76;21151;-84
2021/11/26 12:37:14;;;;;;;21.35;13.83;;;25.60;72.70;;;;;;1817993;77;21083;-83
2021/11/26 12:40:05;;;;;;;20.32;13.70;;;25.60;72.70;;;;;;1829722;78;21112;-83
2021/11/26 12:42:36;;;;;;;22.98;14.13;;;25.50;73.40;;;;;;1835989;75;21225;-83
2021/11/26 12:45:09;;;;;;;20.62;14.80;;;25.50;73.40;;;;;;1804705;79;21173;-83
2021/11/26 12:47:41;;;;;;;21.80;15.38;;;25.50;73.30;;;;;;1881772;75;21132;-84
2021/11/26 12:52:51;;;;;;;21.23;15.48;;;25.40;73.50;;;;;;1881528;75;21564;-83
2021/11/26 12:55:21;;;;;;;21.90;14.70;;;25.40;74.20;;;;;;1868893;76;21102;-83
2021/11/26 12:57:55;;;;;;;20.40;13.93;;;25.30;74.40;;;;;;1867435;75;21190;-83
2021/11/26 13:00:26;;;;;;;23.38;14.43;;;25.30;74.40;;;;;;1866495;76;21180;-83
2021/11/26 13:02:59;;;;;;;21.65;14.85;;;25.30;74.40;;;;;;1796960;79;21103;-82
2021/11/26 13:05:30;;;;;;;20.68;14.70;;;25.30;74.60;;;;;;1868595;75;21955;-83
2021/11/26 13:08:01;;;;;;;20.37;13.60;;;25.30;74.30;;;;;;1894286;74;21088;-83
2021/11/26 13:10:32;;;;;;;18.73;13.95;;;25.20;74.20;;;;;;1880596;75;21714;-83
2021/11/26 13:13:03;;;;;;;18.98;13.48;;;25.20;74.20;;;;;;1883952;75;21883;-83
2021/11/26 13:15:37;;;;;;;17.00;13.28;;;25.20;73.90;;;;;;1856919;76;21511;-83
2021/11/26 13:18:10;;;;;;;17.62;12.33;;;25.20;73.70;;;;;;1844822;77;21104;-83